sensor_id;sensor_type;location;lat;lon;timestamp;temperature;humidity
26599;DHT22;14240;51.064;16.612;2023-01-25T00:00:16;3.70;99.90
26599;DHT22;14240;51.064;16.612;2023-01-25T00:02:44;3.70;99.90
26599;DHT22;14240;51.064;16.612;2023-01-25T00:05:16;3.70;99.90
26599;DHT22;14240;51.064;16.612;2023-01-25T00:07:41;3.70;99.90
26599;DHT22;14240;51.064;16.612;2023-01-25T00:10:08;3.70;99.90
26599;DHT22;14240;51.064;16.612;2023-01-25T00:12:34;3.70;99.90
26599;DHT22;14240;51.064;16.612;2023-01-25T00:14:59;3.60;99.90
26599;DHT22;14240;51.064;16.612;2023-01-25T00:17:25;3.70;99.90
26599;DHT22;14240;51.064;16.612;2023-01-25T00:19:51;3.70;99.90
26599;DHT22;14240;51.064;16.612;2023-01-25T00:22:17;3.70;99.90
26599;DHT22;14240;51.064;16.612;2023-01-25T00:24:42;3.70;99.90
26599;DHT22;14240;51.064;16.612;2023-01-25T00:27:08;3.70;99.90
26599;DHT22;14240;51.064;16.612;2023-01-25T00:29:34;3.80;99.90
26599;DHT22;14240;51.064;16.612;2023-01-25T00:34:49;3.80;99.90
26599;DHT22;14240;51.064;16.612;2023-01-25T00:39:50;3.70;99.90
26599;DHT22;14240;51.064;16.612;2023-01-25T00:42:17;3.70;99.90
26599;DHT22;14240;51.064;16.612;2023-01-25T00:44:44;3.70;99.90
26599;DHT22;14240;51.064;16.612;2023-01-25T00:47:10;3.70;99.90
26599;DHT22;14240;51.064;16.612;2023-01-25T00:49:38;3.60;99.90
26599;DHT22;14240;51.064;16.612;2023-01-25T00:52:04;3.70;99.90
26599;DHT22;14240;51.064;16.612;2023-01-25T00:54:30;3.60;99.90
26599;DHT22;14240;51.064;16.612;2023-01-25T00:56:56;3.60;99.90
26599;DHT22;14240;51.064;16.612;2023-01-25T00:59:23;3.70;99.90
26599;DHT22;14240;51.064;16.612;2023-01-25T01:01:49;3.70;99.90
26599;DHT22;14240;51.064;16.612;2023-01-25T01:04:15;3.70;99.90
26599;DHT22;14240;51.064;16.612;2023-01-25T01:06:42;3.70;99.90
26599;DHT22;14240;51.064;16.612;2023-01-25T01:09:12;3.70;99.90
26599;DHT22;14240;51.064;16.612;2023-01-25T01:11:38;3.70;99.90
26599;DHT22;14240;51.064;16.612;2023-01-25T01:14:04;3.70;99.90
26599;DHT22;14240;51.064;16.612;2023-01-25T01:16:29;3.70;99.90
26599;DHT22;14240;51.064;16.612;2023-01-25T01:18:55;3.70;99.90
26599;DHT22;14240;51.064;16.612;2023-01-25T01:21:21;3.60;99.90
26599;DHT22;14240;51.064;16.612;2023-01-25T01:23:47;3.70;99.90
26599;DHT22;14240;51.064;16.612;2023-01-25T01:26:15;3.70;99.90
26599;DHT22;14240;51.064;16.612;2023-01-25T01:28:41;3.70;99.90
26599;DHT22;14240;51.064;16.612;2023-01-25T01:31:16;3.70;99.90
26599;DHT22;14240;51.064;16.612;2023-01-25T01:33:42;3.70;99.90
26599;DHT22;14240;51.064;16.612;2023-01-25T01:36:14;3.70;99.90
26599;DHT22;14240;51.064;16.612;2023-01-25T01:38:40;3.80;99.90
26599;DHT22;14240;51.064;16.612;2023-01-25T01:41:06;3.80;99.90
26599;DHT22;14240;51.064;16.612;2023-01-25T01:43:32;3.80;99.90
26599;DHT22;14240;51.064;16.612;2023-01-25T01:46:03;3.80;99.90
26599;DHT22;14240;51.064;16.612;2023-01-25T01:53:53;3.80;99.90
26599;DHT22;14240;51.064;16.612;2023-01-25T01:56:25;3.80;99.90
26599;DHT22;14240;51.064;16.612;2023-01-25T01:58:55;3.80;99.90
26599;DHT22;14240;51.064;16.612;2023-01-25T02:01:22;3.80;99.90
26599;DHT22;14240;51.064;16.612;2023-01-25T02:03:49;3.80;99.90
26599;DHT22;14240;51.064;16.612;2023-01-25T02:06:24;3.80;99.90
26599;DHT22;14240;51.064;16.612;2023-01-25T02:08:53;3.70;99.90
26599;DHT22;14240;51.064;16.612;2023-01-25T02:11:20;3.70;99.90
26599;DHT22;14240;51.064;16.612;2023-01-25T02:13:47;3.70;99.90
26599;DHT22;14240;51.064;16.612;2023-01-25T02:16:16;3.70;99.90
26599;DHT22;14240;51.064;16.612;2023-01-25T02:18:44;3.60;99.90
26599;DHT22;14240;51.064;16.612;2023-01-25T02:21:10;3.70;99.90
26599;DHT22;14240;51.064;16.612;2023-01-25T02:24:12;3.70;99.90
26599;DHT22;14240;51.064;16.612;2023-01-25T02:26:39;3.70;99.90
26599;DHT22;14240;51.064;16.612;2023-01-25T02:29:06;3.70;99.90
26599;DHT22;14240;51.064;16.612;2023-01-25T02:31:32;3.70;99.90
26599;DHT22;14240;51.064;16.612;2023-01-25T02:33:58;3.70;99.90
26599;DHT22;14240;51.064;16.612;2023-01-25T02:36:33;3.60;99.90
26599;DHT22;14240;51.064;16.612;2023-01-25T02:39:06;3.70;99.90
26599;DHT22;14240;51.064;16.612;2023-01-25T02:41:34;3.70;99.90
26599;DHT22;14240;51.064;16.612;2023-01-25T02:44:07;3.70;99.90
26599;DHT22;14240;51.064;16.612;2023-01-25T02:46:36;3.70;99.90
26599;DHT22;14240;51.064;16.612;2023-01-25T02:49:04;3.70;99.90
26599;DHT22;14240;51.064;16.612;2023-01-25T02:51:33;3.70;99.90
26599;DHT22;14240;51.064;16.612;2023-01-25T02:53:59;3.70;99.90
26599;DHT22;14240;51.064;16.612;2023-01-25T02:56:25;3.70;99.90
26599;DHT22;14240;51.064;16.612;2023-01-25T02:58:52;3.70;99.90
26599;DHT22;14240;51.064;16.612;2023-01-25T03:01:18;3.70;99.90
26599;DHT22;14240;51.064;16.612;2023-01-25T03:03:44;3.70;99.90
26599;DHT22;14240;51.064;16.612;2023-01-25T03:06:10;3.60;99.90
26599;DHT22;14240;51.064;16.612;2023-01-25T03:08:36;3.70;99.90
26599;DHT22;14240;51.064;16.612;2023-01-25T03:11:04;3.60;99.90
26599;DHT22;14240;51.064;16.612;2023-01-25T03:13:31;3.70;99.90
26599;DHT22;14240;51.064;16.612;2023-01-25T03:15:59;3.60;99.90
26599;DHT22;14240;51.064;16.612;2023-01-25T03:18:25;3.60;99.90
26599;DHT22;14240;51.064;16.612;2023-01-25T03:20:50;3.60;99.90
26599;DHT22;14240;51.064;16.612;2023-01-25T03:23:16;3.60;99.90
26599;DHT22;14240;51.064;16.612;2023-01-25T03:25:42;3.60;99.90
26599;DHT22;14240;51.064;16.612;2023-01-25T03:28:08;3.60;99.90
26599;DHT22;14240;51.064;16.612;2023-01-25T03:30:33;3.60;99.90
26599;DHT22;14240;51.064;16.612;2023-01-25T03:32:59;3.60;99.90
26599;DHT22;14240;51.064;16.612;2023-01-25T03:35:25;3.60;99.90
26599;DHT22;14240;51.064;16.612;2023-01-25T03:37:51;3.60;99.90
26599;DHT22;14240;51.064;16.612;2023-01-25T03:40:16;3.60;99.90
26599;DHT22;14240;51.064;16.612;2023-01-25T03:42:42;3.60;99.90
26599;DHT22;14240;51.064;16.612;2023-01-25T03:45:08;3.60;99.90
26599;DHT22;14240;51.064;16.612;2023-01-25T03:47:37;3.60;99.90
26599;DHT22;14240;51.064;16.612;2023-01-25T03:50:03;3.60;99.90
26599;DHT22;14240;51.064;16.612;2023-01-25T03:52:28;3.60;99.90
26599;DHT22;14240;51.064;16.612;2023-01-25T03:54:58;3.60;99.90
26599;DHT22;14240;51.064;16.612;2023-01-25T03:57:24;3.60;99.90
26599;DHT22;14240;51.064;16.612;2023-01-25T03:59:50;3.60;99.90
26599;DHT22;14240;51.064;16.612;2023-01-25T04:02:15;3.60;99.90
26599;DHT22;14240;51.064;16.612;2023-01-25T04:04:41;3.60;99.90
26599;DHT22;14240;51.064;16.612;2023-01-25T04:07:07;3.60;99.90
26599;DHT22;14240;51.064;16.612;2023-01-25T04:09:32;3.60;99.90
26599;DHT22;14240;51.064;16.612;2023-01-25T04:11:58;3.60;99.90
26599;DHT22;14240;51.064;16.612;2023-01-25T04:14:24;3.60;99.90
26599;DHT22;14240;51.064;16.612;2023-01-25T04:16:49;3.60;99.90
26599;DHT22;14240;51.064;16.612;2023-01-25T04:19:15;3.60;99.90
26599;DHT22;14240;51.064;16.612;2023-01-25T04:21:41;3.70;99.90
26599;DHT22;14240;51.064;16.612;2023-01-25T04:24:06;3.70;99.90
26599;DHT22;14240;51.064;16.612;2023-01-25T04:26:32;3.70;99.90
26599;DHT22;14240;51.064;16.612;2023-01-25T04:28:58;3.60;99.90
26599;DHT22;14240;51.064;16.612;2023-01-25T04:31:23;3.60;99.90
26599;DHT22;14240;51.064;16.612;2023-01-25T04:33:49;3.70;99.90
26599;DHT22;14240;51.064;16.612;2023-01-25T04:36:15;3.70;99.90
26599;DHT22;14240;51.064;16.612;2023-01-25T04:38:41;3.60;99.90
26599;DHT22;14240;51.064;16.612;2023-01-25T04:41:06;3.60;99.90
26599;DHT22;14240;51.064;16.612;2023-01-25T04:43:35;3.60;99.90
26599;DHT22;14240;51.064;16.612;2023-01-25T04:46:08;3.70;99.90
26599;DHT22;14240;51.064;16.612;2023-01-25T04:48:35;3.60;99.90
26599;DHT22;14240;51.064;16.612;2023-01-25T04:51:03;3.60;99.90
26599;DHT22;14240;51.064;16.612;2023-01-25T04:53:29;3.60;99.90
26599;DHT22;14240;51.064;16.612;2023-01-25T04:55:58;3.60;99.90
26599;DHT22;14240;51.064;16.612;2023-01-25T04:58:28;3.60;99.90
26599;DHT22;14240;51.064;16.612;2023-01-25T05:00:58;3.60;99.90
26599;DHT22;14240;51.064;16.612;2023-01-25T05:03:24;3.60;99.90
26599;DHT22;14240;51.064;16.612;2023-01-25T05:05:49;3.60;99.90
26599;DHT22;14240;51.064;16.612;2023-01-25T05:08:15;3.60;99.90
26599;DHT22;14240;51.064;16.612;2023-01-25T05:10:41;3.60;99.90
26599;DHT22;14240;51.064;16.612;2023-01-25T05:13:06;3.60;99.90
26599;DHT22;14240;51.064;16.612;2023-01-25T05:15:32;3.60;99.90
26599;DHT22;14240;51.064;16.612;2023-01-25T05:17:58;3.50;99.90
26599;DHT22;14240;51.064;16.612;2023-01-25T05:20:23;3.60;99.90
26599;DHT22;14240;51.064;16.612;2023-01-25T05:22:49;3.50;99.90
26599;DHT22;14240;51.064;16.612;2023-01-25T05:25:15;3.60;99.90
26599;DHT22;14240;51.064;16.612;2023-01-25T05:28:00;3.60;99.90
26599;DHT22;14240;51.064;16.612;2023-01-25T05:30:28;3.60;99.90
26599;DHT22;14240;51.064;16.612;2023-01-25T05:32:53;3.60;99.90
26599;DHT22;14240;51.064;16.612;2023-01-25T05:35:19;3.60;99.90
26599;DHT22;14240;51.064;16.612;2023-01-25T05:37:45;3.50;99.90
26599;DHT22;14240;51.064;16.612;2023-01-25T05:40:11;3.50;99.90
26599;DHT22;14240;51.064;16.612;2023-01-25T05:42:36;3.60;99.90
26599;DHT22;14240;51.064;16.612;2023-01-25T05:45:03;3.60;99.90
26599;DHT22;14240;51.064;16.612;2023-01-25T05:47:28;3.50;99.90
26599;DHT22;14240;51.064;16.612;2023-01-25T05:49:54;3.60;99.90
26599;DHT22;14240;51.064;16.612;2023-01-25T05:52:20;3.60;99.90
26599;DHT22;14240;51.064;16.612;2023-01-25T05:54:45;3.50;99.90
26599;DHT22;14240;51.064;16.612;2023-01-25T05:57:13;3.50;99.90
26599;DHT22;14240;51.064;16.612;2023-01-25T05:59:39;3.60;99.90
26599;DHT22;14240;51.064;16.612;2023-01-25T06:02:04;3.50;99.90
26599;DHT22;14240;51.064;16.612;2023-01-25T06:04:31;3.50;99.90
26599;DHT22;14240;51.064;16.612;2023-01-25T06:06:57;3.50;99.90
26599;DHT22;14240;51.064;16.612;2023-01-25T06:09:23;3.50;99.90
26599;DHT22;14240;51.064;16.612;2023-01-25T06:11:49;3.50;99.90
26599;DHT22;14240;51.064;16.612;2023-01-25T06:14:14;3.50;99.90
26599;DHT22;14240;51.064;16.612;2023-01-25T06:16:40;3.50;99.90
26599;DHT22;14240;51.064;16.612;2023-01-25T06:19:07;3.50;99.90
26599;DHT22;14240;51.064;16.612;2023-01-25T06:21:33;3.50;99.90
26599;DHT22;14240;51.064;16.612;2023-01-25T06:24:04;3.50;99.90
26599;DHT22;14240;51.064;16.612;2023-01-25T06:26:30;3.50;99.90
26599;DHT22;14240;51.064;16.612;2023-01-25T06:28:56;3.50;99.90
26599;DHT22;14240;51.064;16.612;2023-01-25T06:31:21;3.50;99.90
26599;DHT22;14240;51.064;16.612;2023-01-25T06:33:50;3.50;99.90
26599;DHT22;14240;51.064;16.612;2023-01-25T06:36:18;3.50;99.90
26599;DHT22;14240;51.064;16.612;2023-01-25T06:38:50;3.50;99.90
26599;DHT22;14240;51.064;16.612;2023-01-25T06:41:17;3.40;99.90
26599;DHT22;14240;51.064;16.612;2023-01-25T06:43:43;3.40;99.90
26599;DHT22;14240;51.064;16.612;2023-01-25T06:46:10;3.40;99.90
26599;DHT22;14240;51.064;16.612;2023-01-25T06:48:39;3.40;99.90
26599;DHT22;14240;51.064;16.612;2023-01-25T06:51:08;3.40;99.90
26599;DHT22;14240;51.064;16.612;2023-01-25T06:53:37;3.40;99.90
26599;DHT22;14240;51.064;16.612;2023-01-25T06:56:15;3.40;99.90
26599;DHT22;14240;51.064;16.612;2023-01-25T06:58:46;3.40;99.90
26599;DHT22;14240;51.064;16.612;2023-01-25T07:01:19;3.40;99.90
26599;DHT22;14240;51.064;16.612;2023-01-25T07:03:57;3.40;99.90
26599;DHT22;14240;51.064;16.612;2023-01-25T07:06:31;3.30;99.90
26599;DHT22;14240;51.064;16.612;2023-01-25T07:09:09;3.30;99.90
26599;DHT22;14240;51.064;16.612;2023-01-25T07:11:35;3.30;99.90
26599;DHT22;14240;51.064;16.612;2023-01-25T07:14:02;3.30;99.90
26599;DHT22;14240;51.064;16.612;2023-01-25T07:16:28;3.30;99.90
26599;DHT22;14240;51.064;16.612;2023-01-25T07:18:54;3.30;99.90
26599;DHT22;14240;51.064;16.612;2023-01-25T07:21:21;3.30;99.90
26599;DHT22;14240;51.064;16.612;2023-01-25T07:23:48;3.30;99.90
26599;DHT22;14240;51.064;16.612;2023-01-25T07:26:23;3.30;99.90
26599;DHT22;14240;51.064;16.612;2023-01-25T07:28:49;3.30;99.90
26599;DHT22;14240;51.064;16.612;2023-01-25T07:31:17;3.30;99.90
26599;DHT22;14240;51.064;16.612;2023-01-25T07:33:43;3.30;99.90
26599;DHT22;14240;51.064;16.612;2023-01-25T07:36:11;3.40;99.90
26599;DHT22;14240;51.064;16.612;2023-01-25T07:38:38;3.30;99.90
26599;DHT22;14240;51.064;16.612;2023-01-25T07:41:04;3.30;99.90
26599;DHT22;14240;51.064;16.612;2023-01-25T07:43:29;3.30;99.90
26599;DHT22;14240;51.064;16.612;2023-01-25T07:46:03;3.40;99.90
26599;DHT22;14240;51.064;16.612;2023-01-25T07:48:30;3.40;99.90
26599;DHT22;14240;51.064;16.612;2023-01-25T07:51:03;3.40;99.90
26599;DHT22;14240;51.064;16.612;2023-01-25T07:56:22;3.40;99.90
26599;DHT22;14240;51.064;16.612;2023-01-25T07:58:50;3.40;99.90
26599;DHT22;14240;51.064;16.612;2023-01-25T08:01:18;3.40;99.90
26599;DHT22;14240;51.064;16.612;2023-01-25T08:03:45;3.40;99.90
26599;DHT22;14240;51.064;16.612;2023-01-25T08:06:11;3.40;99.90
26599;DHT22;14240;51.064;16.612;2023-01-25T08:08:40;3.50;99.90
26599;DHT22;14240;51.064;16.612;2023-01-25T08:11:09;3.50;99.90
26599;DHT22;14240;51.064;16.612;2023-01-25T08:13:35;3.50;99.90
26599;DHT22;14240;51.064;16.612;2023-01-25T08:16:01;3.50;99.90
26599;DHT22;14240;51.064;16.612;2023-01-25T08:18:27;3.50;99.90
26599;DHT22;14240;51.064;16.612;2023-01-25T08:21:01;3.50;99.90
26599;DHT22;14240;51.064;16.612;2023-01-25T08:23:28;3.40;99.90
26599;DHT22;14240;51.064;16.612;2023-01-25T08:25:54;3.50;99.90
26599;DHT22;14240;51.064;16.612;2023-01-25T08:28:21;3.50;99.90
26599;DHT22;14240;51.064;16.612;2023-01-25T08:30:47;3.40;99.90
26599;DHT22;14240;51.064;16.612;2023-01-25T08:33:13;3.40;99.90
26599;DHT22;14240;51.064;16.612;2023-01-25T08:35:38;3.40;99.90
26599;DHT22;14240;51.064;16.612;2023-01-25T08:38:04;3.30;99.90
26599;DHT22;14240;51.064;16.612;2023-01-25T08:40:30;3.40;99.90
26599;DHT22;14240;51.064;16.612;2023-01-25T08:42:55;3.50;99.90
26599;DHT22;14240;51.064;16.612;2023-01-25T08:45:21;3.50;99.90
26599;DHT22;14240;51.064;16.612;2023-01-25T08:47:47;3.50;99.90
26599;DHT22;14240;51.064;16.612;2023-01-25T08:50:13;3.50;99.90
26599;DHT22;14240;51.064;16.612;2023-01-25T08:52:39;3.60;99.90
26599;DHT22;14240;51.064;16.612;2023-01-25T08:55:05;3.60;99.90
26599;DHT22;14240;51.064;16.612;2023-01-25T08:57:31;3.60;99.90
26599;DHT22;14240;51.064;16.612;2023-01-25T08:59:56;3.60;99.90
26599;DHT22;14240;51.064;16.612;2023-01-25T09:02:22;3.60;99.90
26599;DHT22;14240;51.064;16.612;2023-01-25T09:04:49;3.60;99.90
26599;DHT22;14240;51.064;16.612;2023-01-25T09:07:18;3.60;99.90
26599;DHT22;14240;51.064;16.612;2023-01-25T09:09:44;3.50;99.90
26599;DHT22;14240;51.064;16.612;2023-01-25T09:12:10;3.50;99.90
26599;DHT22;14240;51.064;16.612;2023-01-25T09:14:35;3.60;99.90
26599;DHT22;14240;51.064;16.612;2023-01-25T09:17:08;3.60;99.90
26599;DHT22;14240;51.064;16.612;2023-01-25T09:19:42;3.50;99.90
26599;DHT22;14240;51.064;16.612;2023-01-25T09:22:07;3.50;99.90
26599;DHT22;14240;51.064;16.612;2023-01-25T09:24:33;3.50;99.90
26599;DHT22;14240;51.064;16.612;2023-01-25T09:26:59;3.40;99.90
26599;DHT22;14240;51.064;16.612;2023-01-25T09:29:25;3.50;99.90
26599;DHT22;14240;51.064;16.612;2023-01-25T09:31:51;3.50;99.90
26599;DHT22;14240;51.064;16.612;2023-01-25T09:34:17;3.50;99.90
26599;DHT22;14240;51.064;16.612;2023-01-25T09:36:42;3.50;99.90
26599;DHT22;14240;51.064;16.612;2023-01-25T09:39:09;3.50;99.90
26599;DHT22;14240;51.064;16.612;2023-01-25T09:42:09;3.50;99.90
26599;DHT22;14240;51.064;16.612;2023-01-25T09:52:37;3.50;99.90
26599;DHT22;14240;51.064;16.612;2023-01-25T09:55:13;3.50;99.90
26599;DHT22;14240;51.064;16.612;2023-01-25T09:57:42;3.50;99.90
26599;DHT22;14240;51.064;16.612;2023-01-25T10:00:43;3.50;99.90
26599;DHT22;14240;51.064;16.612;2023-01-25T10:06:01;3.50;99.90
26599;DHT22;14240;51.064;16.612;2023-01-25T10:11:25;3.50;99.90
26599;DHT22;14240;51.064;16.612;2023-01-25T10:13:53;3.50;99.90
26599;DHT22;14240;51.064;16.612;2023-01-25T10:22:34;3.50;99.90
26599;DHT22;14240;51.064;16.612;2023-01-25T10:25:28;3.50;99.90
26599;DHT22;14240;51.064;16.612;2023-01-25T10:33:27;3.50;99.90
26599;DHT22;14240;51.064;16.612;2023-01-25T10:35:55;3.50;99.90
26599;DHT22;14240;51.064;16.612;2023-01-25T10:38:32;3.50;99.90
26599;DHT22;14240;51.064;16.612;2023-01-25T10:41:04;3.50;99.90
26599;DHT22;14240;51.064;16.612;2023-01-25T10:43:31;3.50;99.90
26599;DHT22;14240;51.064;16.612;2023-01-25T10:45:57;3.60;99.90
26599;DHT22;14240;51.064;16.612;2023-01-25T10:48:29;3.60;99.90
26599;DHT22;14240;51.064;16.612;2023-01-25T10:50:57;3.60;99.90
26599;DHT22;14240;51.064;16.612;2023-01-25T10:56:21;3.70;99.90
26599;DHT22;14240;51.064;16.612;2023-01-25T10:58:50;3.70;99.90
26599;DHT22;14240;51.064;16.612;2023-01-25T11:01:31;3.70;99.90
26599;DHT22;14240;51.064;16.612;2023-01-25T11:04:00;3.70;99.90
26599;DHT22;14240;51.064;16.612;2023-01-25T11:06:39;3.70;99.90
26599;DHT22;14240;51.064;16.612;2023-01-25T11:11:55;3.80;99.90
26599;DHT22;14240;51.064;16.612;2023-01-25T11:14:26;3.80;99.90
26599;DHT22;14240;51.064;16.612;2023-01-25T11:16:54;3.80;99.90
26599;DHT22;14240;51.064;16.612;2023-01-25T11:21:55;3.90;99.90
26599;DHT22;14240;51.064;16.612;2023-01-25T11:24:26;3.90;99.90
26599;DHT22;14240;51.064;16.612;2023-01-25T11:27:18;3.90;99.90
26599;DHT22;14240;51.064;16.612;2023-01-25T11:29:45;3.90;99.90
26599;DHT22;14240;51.064;16.612;2023-01-25T11:32:17;3.90;99.90
26599;DHT22;14240;51.064;16.612;2023-01-25T11:34:46;3.90;99.90
26599;DHT22;14240;51.064;16.612;2023-01-25T11:37:25;3.90;99.90
26599;DHT22;14240;51.064;16.612;2023-01-25T11:42:54;3.90;99.90
26599;DHT22;14240;51.064;16.612;2023-01-25T11:48:26;3.90;99.90
26599;DHT22;14240;51.064;16.612;2023-01-25T11:51:17;3.90;99.90
26599;DHT22;14240;51.064;16.612;2023-01-25T12:09:56;4.00;99.90
26599;DHT22;14240;51.064;16.612;2023-01-25T12:12:56;4.00;99.90
26599;DHT22;14240;51.064;16.612;2023-01-25T12:15:37;4.00;99.90
26599;DHT22;14240;51.064;16.612;2023-01-25T12:19:34;4.00;99.90
26599;DHT22;14240;51.064;16.612;2023-01-25T12:30:11;4.00;99.90
26599;DHT22;14240;51.064;16.612;2023-01-25T12:32:35;4.10;99.90
26599;DHT22;14240;51.064;16.612;2023-01-25T12:35:24;4.10;99.90
26599;DHT22;14240;51.064;16.612;2023-01-25T12:37:57;4.10;99.90
26599;DHT22;14240;51.064;16.612;2023-01-25T12:43:12;4.10;99.90
26599;DHT22;14240;51.064;16.612;2023-01-25T12:45:39;4.10;99.90
26599;DHT22;14240;51.064;16.612;2023-01-25T12:48:31;4.20;99.90
26599;DHT22;14240;51.064;16.612;2023-01-25T12:50:59;4.20;99.90
26599;DHT22;14240;51.064;16.612;2023-01-25T12:53:32;4.20;99.90
26599;DHT22;14240;51.064;16.612;2023-01-25T12:56:01;4.10;99.90
26599;DHT22;14240;51.064;16.612;2023-01-25T13:06:50;4.10;99.90
26599;DHT22;14240;51.064;16.612;2023-01-25T13:09:44;4.10;99.90
26599;DHT22;14240;51.064;16.612;2023-01-25T13:12:10;4.10;99.90
26599;DHT22;14240;51.064;16.612;2023-01-25T13:14:40;4.10;99.90
26599;DHT22;14240;51.064;16.612;2023-01-25T13:22:01;4.10;99.90
26599;DHT22;14240;51.064;16.612;2023-01-25T13:24:32;4.10;99.90
26599;DHT22;14240;51.064;16.612;2023-01-25T13:27:08;4.10;99.90
26599;DHT22;14240;51.064;16.612;2023-01-25T13:29:48;4.20;99.90
26599;DHT22;14240;51.064;16.612;2023-01-25T13:39:54;4.20;99.90
26599;DHT22;14240;51.064;16.612;2023-01-25T13:44:56;4.10;99.90
26599;DHT22;14240;51.064;16.612;2023-01-25T13:47:29;4.20;99.90
26599;DHT22;14240;51.064;16.612;2023-01-25T13:52:27;4.20;99.90
26599;DHT22;14240;51.064;16.612;2023-01-25T13:54:56;4.20;99.90
26599;DHT22;14240;51.064;16.612;2023-01-25T13:57:28;4.20;99.90
26599;DHT22;14240;51.064;16.612;2023-01-25T14:00:06;4.20;99.90
26599;DHT22;14240;51.064;16.612;2023-01-25T14:02:41;4.20;99.90
26599;DHT22;14240;51.064;16.612;2023-01-25T14:05:21;4.20;99.90
26599;DHT22;14240;51.064;16.612;2023-01-25T14:07:48;4.20;99.90
26599;DHT22;14240;51.064;16.612;2023-01-25T14:10:22;4.20;99.90
26599;DHT22;14240;51.064;16.612;2023-01-25T14:12:53;4.20;99.90
26599;DHT22;14240;51.064;16.612;2023-01-25T14:15:21;4.20;99.90
26599;DHT22;14240;51.064;16.612;2023-01-25T14:18:14;4.20;99.90
26599;DHT22;14240;51.064;16.612;2023-01-25T14:20:50;4.20;99.90
26599;DHT22;14240;51.064;16.612;2023-01-25T14:23:29;4.20;99.90
26599;DHT22;14240;51.064;16.612;2023-01-25T14:25:56;4.20;99.90
26599;DHT22;14240;51.064;16.612;2023-01-25T14:28:26;4.20;99.90
26599;DHT22;14240;51.064;16.612;2023-01-25T14:30:55;4.20;99.90
26599;DHT22;14240;51.064;16.612;2023-01-25T14:33:24;4.20;99.90
26599;DHT22;14240;51.064;16.612;2023-01-25T14:36:04;4.20;99.90
26599;DHT22;14240;51.064;16.612;2023-01-25T14:38:38;4.10;99.90
26599;DHT22;14240;51.064;16.612;2023-01-25T14:43:43;4.10;99.90
26599;DHT22;14240;51.064;16.612;2023-01-25T14:46:22;4.10;99.90
26599;DHT22;14240;51.064;16.612;2023-01-25T14:49:18;4.10;99.90
26599;DHT22;14240;51.064;16.612;2023-01-25T14:54:34;4.10;99.90
26599;DHT22;14240;51.064;16.612;2023-01-25T14:57:16;4.10;99.90
26599;DHT22;14240;51.064;16.612;2023-01-25T14:59:50;4.10;99.90
26599;DHT22;14240;51.064;16.612;2023-01-25T15:02:24;4.10;99.90
26599;DHT22;14240;51.064;16.612;2023-01-25T15:07:43;4.10;99.90
26599;DHT22;14240;51.064;16.612;2023-01-25T15:10:30;4.10;99.90
26599;DHT22;14240;51.064;16.612;2023-01-25T15:13:00;4.10;99.90
26599;DHT22;14240;51.064;16.612;2023-01-25T15:15:29;4.10;99.90
26599;DHT22;14240;51.064;16.612;2023-01-25T15:17:55;4.10;99.90
26599;DHT22;14240;51.064;16.612;2023-01-25T15:20:42;4.10;99.90
26599;DHT22;14240;51.064;16.612;2023-01-25T15:23:24;4.00;99.90
26599;DHT22;14240;51.064;16.612;2023-01-25T15:25:52;4.00;99.90
26599;DHT22;14240;51.064;16.612;2023-01-25T15:28:19;4.00;99.90
26599;DHT22;14240;51.064;16.612;2023-01-25T15:30:45;4.00;99.90
26599;DHT22;14240;51.064;16.612;2023-01-25T15:33:22;4.00;99.90
26599;DHT22;14240;51.064;16.612;2023-01-25T15:35:49;4.00;99.90
26599;DHT22;14240;51.064;16.612;2023-01-25T15:38:15;4.00;99.90
26599;DHT22;14240;51.064;16.612;2023-01-25T15:40:44;4.00;99.90
26599;DHT22;14240;51.064;16.612;2023-01-25T15:43:12;3.90;99.90
26599;DHT22;14240;51.064;16.612;2023-01-25T15:45:40;4.00;99.90
26599;DHT22;14240;51.064;16.612;2023-01-25T15:48:15;3.90;99.90
26599;DHT22;14240;51.064;16.612;2023-01-25T15:50:41;4.00;99.90
26599;DHT22;14240;51.064;16.612;2023-01-25T15:53:16;3.90;99.90
26599;DHT22;14240;51.064;16.612;2023-01-25T15:55:44;3.90;99.90
26599;DHT22;14240;51.064;16.612;2023-01-25T15:58:24;3.90;99.90
26599;DHT22;14240;51.064;16.612;2023-01-25T16:00:50;3.90;99.90
26599;DHT22;14240;51.064;16.612;2023-01-25T16:03:17;3.90;99.90
26599;DHT22;14240;51.064;16.612;2023-01-25T16:05:47;3.90;99.90
26599;DHT22;14240;51.064;16.612;2023-01-25T16:08:14;3.90;99.90
26599;DHT22;14240;51.064;16.612;2023-01-25T16:10:40;3.90;99.90
26599;DHT22;14240;51.064;16.612;2023-01-25T16:13:08;3.90;99.90
26599;DHT22;14240;51.064;16.612;2023-01-25T16:15:34;3.80;99.90
26599;DHT22;14240;51.064;16.612;2023-01-25T16:18:00;3.80;99.90
26599;DHT22;14240;51.064;16.612;2023-01-25T16:20:25;3.80;99.90
26599;DHT22;14240;51.064;16.612;2023-01-25T16:22:51;3.80;99.90
26599;DHT22;14240;51.064;16.612;2023-01-25T16:25:17;3.70;99.90
26599;DHT22;14240;51.064;16.612;2023-01-25T16:27:42;3.70;99.90
26599;DHT22;14240;51.064;16.612;2023-01-25T16:30:16;3.70;99.90
26599;DHT22;14240;51.064;16.612;2023-01-25T16:32:43;3.70;99.90
26599;DHT22;14240;51.064;16.612;2023-01-25T16:35:09;3.70;99.90
26599;DHT22;14240;51.064;16.612;2023-01-25T16:37:35;3.70;99.90
26599;DHT22;14240;51.064;16.612;2023-01-25T16:40:01;3.70;99.90
26599;DHT22;14240;51.064;16.612;2023-01-25T16:42:26;3.70;99.90
26599;DHT22;14240;51.064;16.612;2023-01-25T16:44:52;3.70;99.90
26599;DHT22;14240;51.064;16.612;2023-01-25T16:47:18;3.70;99.90
26599;DHT22;14240;51.064;16.612;2023-01-25T16:49:43;3.70;99.90
26599;DHT22;14240;51.064;16.612;2023-01-25T16:52:10;3.70;99.90
26599;DHT22;14240;51.064;16.612;2023-01-25T16:54:36;3.70;99.90
26599;DHT22;14240;51.064;16.612;2023-01-25T16:57:02;3.70;99.90
26599;DHT22;14240;51.064;16.612;2023-01-25T16:59:27;3.70;99.90
26599;DHT22;14240;51.064;16.612;2023-01-25T17:01:54;3.70;99.90
26599;DHT22;14240;51.064;16.612;2023-01-25T17:04:20;3.70;99.90
26599;DHT22;14240;51.064;16.612;2023-01-25T17:06:47;3.80;99.90
26599;DHT22;14240;51.064;16.612;2023-01-25T17:09:16;3.70;99.90
26599;DHT22;14240;51.064;16.612;2023-01-25T17:11:44;3.70;99.90
26599;DHT22;14240;51.064;16.612;2023-01-25T17:14:14;3.70;99.90
26599;DHT22;14240;51.064;16.612;2023-01-25T17:16:40;3.70;99.90
26599;DHT22;14240;51.064;16.612;2023-01-25T17:19:09;3.70;99.90
26599;DHT22;14240;51.064;16.612;2023-01-25T17:21:36;3.70;99.90
26599;DHT22;14240;51.064;16.612;2023-01-25T17:24:02;3.70;99.90
26599;DHT22;14240;51.064;16.612;2023-01-25T17:26:29;3.70;99.90
26599;DHT22;14240;51.064;16.612;2023-01-25T17:28:56;3.70;99.90
26599;DHT22;14240;51.064;16.612;2023-01-25T17:31:28;3.70;99.90
26599;DHT22;14240;51.064;16.612;2023-01-25T17:33:54;3.60;99.90
26599;DHT22;14240;51.064;16.612;2023-01-25T17:36:20;3.60;99.90